Time;durP1;ratioP1;P1;durP2;ratioP2;P2;SDS_P1;SDS_P2;PMS_P1;PMS_P2;Temp;Humidity;BMP_temperature;BMP_pressure;BME280_temperature;BME280_humidity;BME280_pressure;Samples;Min_cycle;Max_cycle;Signal;HPM_P1;HPM_P2
2022/11/12 00:00:37;;;;;;;10.77;8.93;;;5.60;99.90;;;;;;5056589;28;20173;-85
2022/11/12 00:03:03;;;;;;;11.57;8.33;;;5.50;99.90;;;;;;5056695;28;20183;-82
2022/11/12 00:05:29;;;;;;;8.77;7.77;;;5.50;99.90;;;;;;5056521;28;20172;-80
2022/11/12 00:07:55;;;;;;;10.13;7.93;;;5.40;99.90;;;;;;5056836;28;20189;-85
2022/11/12 00:10:21;;;;;;;10.40;7.67;;;5.40;99.90;;;;;;5056596;28;20190;-81
2022/11/12 00:12:48;;;;;;;8.47;6.93;;;5.50;99.90;;;;;;5058281;28;20562;-81
2022/11/12 00:15:16;;;;;;;8.30;6.80;;;5.40;99.90;;;;;;5038248;28;20719;-83
2022/11/12 00:17:42;;;;;;;7.93;7.13;;;5.40;99.90;;;;;;5038353;28;20227;-83
2022/11/12 00:20:09;;;;;;;10.27;7.90;;;5.40;99.90;;;;;;5056447;28;20181;-84
2022/11/12 00:22:35;;;;;;;9.50;7.27;;;5.40;99.90;;;;;;5056648;28;20180;-84
2022/11/12 00:25:01;;;;;;;10.03;8.53;;;5.40;99.90;;;;;;5056707;28;20186;-85
2022/11/12 00:27:27;;;;;;;10.33;8.63;;;5.40;99.90;;;;;;5057450;28;20241;-86
2022/11/12 00:29:53;;;;;;;12.77;8.87;;;5.40;99.90;;;;;;5038566;28;20651;-84
2022/11/12 00:32:19;;;;;;;11.93;9.07;;;5.40;99.90;;;;;;5056211;28;20201;-84
2022/11/12 00:34:45;;;;;;;11.77;9.57;;;5.40;99.90;;;;;;5038678;28;20192;-87
2022/11/12 00:37:11;;;;;;;11.70;9.53;;;5.30;99.90;;;;;;5055802;28;20218;-84
2022/11/12 00:39:37;;;;;;;13.93;9.63;;;5.30;99.90;;;;;;5055342;28;20183;-85
2022/11/12 00:42:03;;;;;;;13.40;10.10;;;5.30;99.90;;;;;;5058579;28;20601;-84
2022/11/12 00:44:29;;;;;;;12.70;10.70;;;5.30;99.90;;;;;;5056537;28;20263;-85
2022/11/12 00:46:55;;;;;;;12.10;9.63;;;5.30;99.90;;;;;;5060799;28;20187;-84
2022/11/12 00:49:21;;;;;;;12.90;9.60;;;5.30;99.90;;;;;;5038421;28;20532;-86
2022/11/12 00:51:48;;;;;;;12.90;9.70;;;5.40;99.90;;;;;;5056175;28;20654;-86
2022/11/12 00:54:14;;;;;;;14.17;10.40;;;5.40;99.90;;;;;;5062005;28;20556;-85
2022/11/12 00:56:40;;;;;;;12.80;9.60;;;5.30;99.90;;;;;;5066449;28;20199;-86
2022/11/12 00:59:06;;;;;;;14.53;10.27;;;5.30;99.90;;;;;;5056921;28;20684;-79
2022/11/12 01:01:32;;;;;;;15.10;10.07;;;5.30;99.90;;;;;;5056256;28;20267;-82
2022/11/12 01:03:59;;;;;;;12.77;10.23;;;5.20;99.90;;;;;;5044407;28;20196;-81
2022/11/12 01:06:25;;;;;;;17.60;11.83;;;5.20;99.90;;;;;;5064010;28;20207;-83
2022/11/12 01:08:51;;;;;;;14.53;11.23;;;5.30;99.90;;;;;;5037672;28;20240;-84
2022/11/12 01:11:21;;;;;;;14.90;9.77;;;5.30;99.90;;;;;;5055496;28;20646;-83
2022/11/12 01:13:57;;;;;;;14.77;10.70;;;5.20;99.90;;;;;;5037413;28;20284;-83
2022/11/12 01:16:26;;;;;;;15.90;10.77;;;5.20;99.90;;;;;;5037483;28;20219;-84
2022/11/12 01:18:54;;;;;;;13.03;10.10;;;5.10;99.90;;;;;;5055470;28;20200;-84
2022/11/12 01:21:22;;;;;;;12.23;9.43;;;5.10;99.90;;;;;;5055938;28;20522;-84
2022/11/12 01:23:48;;;;;;;15.43;9.40;;;5.10;99.90;;;;;;5055264;28;20228;-85
2022/11/12 01:26:17;;;;;;;13.43;9.90;;;5.10;99.90;;;;;;5055397;28;20573;-82
2022/11/12 01:28:43;;;;;;;9.67;7.63;;;5.10;99.90;;;;;;5055383;28;20489;-84
2022/11/12 01:31:14;;;;;;;10.83;7.67;;;5.10;99.90;;;;;;5055069;28;20210;-87
2022/11/12 01:33:42;;;;;;;9.37;7.00;;;5.10;99.90;;;;;;5055310;28;20186;-86
2022/11/12 01:36:08;;;;;;;10.07;7.27;;;5.10;99.90;;;;;;5054953;28;20182;-86
2022/11/12 01:38:36;;;;;;;8.03;6.77;;;5.20;99.90;;;;;;5037195;28;20225;-85
2022/11/12 01:41:02;;;;;;;9.20;6.90;;;5.20;99.90;;;;;;5054824;28;20574;-85
2022/11/12 01:43:28;;;;;;;7.50;5.97;;;5.10;99.90;;;;;;5054936;28;20202;-86
2022/11/12 01:45:55;;;;;;;6.30;5.73;;;5.00;99.90;;;;;;5054654;28;20176;-85
2022/11/12 01:48:47;;;;;;;6.47;5.23;;;5.00;99.90;;;;;;5054367;28;20271;-83
2022/11/12 01:51:14;;;;;;;8.23;6.33;;;4.90;99.90;;;;;;5054230;28;20169;-82
2022/11/12 01:53:44;;;;;;;7.30;6.03;;;5.00;99.90;;;;;;5055016;28;20197;-83
2022/11/12 01:56:12;;;;;;;11.40;7.87;;;5.00;99.90;;;;;;5055640;28;20164;-82
2022/11/12 01:58:39;;;;;;;10.57;8.10;;;5.00;99.90;;;;;;5054848;28;20208;-84
2022/11/12 02:01:04;;;;;;;12.07;9.70;;;5.00;99.90;;;;;;5055105;28;20182;-85
2022/11/12 02:03:31;;;;;;;14.87;10.10;;;5.00;99.90;;;;;;5054758;28;20187;-85
2022/11/12 02:06:08;;;;;;;12.77;9.53;;;5.00;99.90;;;;;;5054656;28;20187;-85
2022/11/12 02:08:36;;;;;;;15.50;11.00;;;4.90;99.90;;;;;;5054837;28;20168;-82
2022/11/12 02:11:14;;;;;;;13.00;9.80;;;4.90;99.90;;;;;;5055388;28;20232;-81
2022/11/12 02:14:02;;;;;;;15.23;10.90;;;4.90;99.90;;;;;;5036667;28;20584;-81
2022/11/12 02:16:35;;;;;;;13.10;10.03;;;4.80;99.90;;;;;;5053794;28;20570;-83
2022/11/12 02:19:02;;;;;;;16.80;10.50;;;4.80;99.90;;;;;;5056854;28;20187;-83
2022/11/12 02:21:29;;;;;;;12.63;10.27;;;4.80;99.90;;;;;;5062550;28;20258;-81
2022/11/12 02:24:25;;;;;;;13.07;9.70;;;4.80;99.90;;;;;;5057380;28;20179;-82
2022/11/12 02:26:54;;;;;;;11.73;9.07;;;4.80;99.90;;;;;;5035686;28;20542;-84
2022/11/12 02:29:21;;;;;;;15.80;8.97;;;4.80;99.90;;;;;;5037846;28;20183;-79
2022/11/12 02:31:47;;;;;;;13.53;9.77;;;4.80;99.90;;;;;;5046128;28;20192;-80
2022/11/12 02:34:13;;;;;;;10.53;8.73;;;4.70;99.90;;;;;;5057337;28;20180;-80
2022/11/12 02:36:39;;;;;;;10.90;9.70;;;4.60;99.90;;;;;;5054227;28;20223;-84
2022/11/12 02:39:05;;;;;;;9.97;8.93;;;4.80;99.90;;;;;;5053994;28;20531;-81
2022/11/12 02:41:31;;;;;;;11.43;9.40;;;4.80;99.90;;;;;;5053625;28;20187;-81
2022/11/12 02:43:57;;;;;;;9.20;8.30;;;4.70;99.90;;;;;;5053966;28;20190;-84
2022/11/12 02:46:23;;;;;;;10.93;9.27;;;4.70;99.90;;;;;;5055286;28;20517;-86
2022/11/12 02:48:49;;;;;;;10.47;8.67;;;4.70;99.90;;;;;;5054921;28;20188;-83
2022/11/12 02:51:15;;;;;;;7.00;5.90;;;4.70;99.90;;;;;;5053638;28;20306;-85
2022/11/12 02:53:40;;;;;;;9.27;7.27;;;4.60;99.90;;;;;;5035859;28;20187;-86
2022/11/12 02:56:06;;;;;;;7.90;7.10;;;4.60;99.90;;;;;;5035701;28;20223;-83
2022/11/12 02:58:32;;;;;;;5.40;4.90;;;4.70;99.90;;;;;;5035425;28;20679;-84
2022/11/12 03:00:58;;;;;;;5.13;4.43;;;4.60;99.90;;;;;;5053604;28;20594;-82
2022/11/12 03:03:24;;;;;;;4.97;4.47;;;4.40;99.90;;;;;;5053365;28;20208;-82
2022/11/12 03:05:58;;;;;;;4.50;4.10;;;4.50;99.90;;;;;;5054404;28;20269;-82
2022/11/12 03:08:25;;;;;;;4.30;3.90;;;4.40;99.90;;;;;;5055085;28;20198;-82
2022/11/12 03:10:51;;;;;;;4.87;4.37;;;4.40;99.90;;;;;;5035567;28;20186;-83
2022/11/12 03:13:17;;;;;;;4.50;4.03;;;4.50;99.90;;;;;;5053540;28;20176;-82
2022/11/12 03:15:43;;;;;;;5.87;4.13;;;4.60;99.90;;;;;;5052827;28;20710;-81
2022/11/12 03:18:09;;;;;;;4.27;3.97;;;4.50;99.90;;;;;;5053036;28;20215;-82
2022/11/12 03:20:34;;;;;;;4.37;4.00;;;4.50;99.90;;;;;;5053508;28;20226;-79
2022/11/12 03:23:06;;;;;;;4.03;3.73;;;4.50;99.90;;;;;;5035209;28;20728;-83
2022/11/12 03:25:32;;;;;;;4.53;3.50;;;4.60;99.90;;;;;;5053315;28;20165;-82
2022/11/12 03:28:10;;;;;;;4.10;3.70;;;4.50;99.90;;;;;;5053258;28;20903;-82
2022/11/12 03:30:38;;;;;;;6.10;4.40;;;4.30;99.90;;;;;;5053412;28;20365;-82
2022/11/12 03:33:06;;;;;;;5.37;4.00;;;4.40;99.90;;;;;;5054752;28;20180;-85
2022/11/12 03:35:33;;;;;;;5.73;4.00;;;4.50;99.90;;;;;;5054405;28;20200;-83
2022/11/12 03:37:59;;;;;;;3.97;3.67;;;4.40;99.90;;;;;;5054173;28;20302;-82
2022/11/12 03:40:26;;;;;;;4.30;3.90;;;4.50;99.90;;;;;;5053536;28;20228;-79
2022/11/12 03:42:52;;;;;;;4.50;4.10;;;4.50;99.90;;;;;;5053071;28;20188;-86
2022/11/12 03:45:20;;;;;;;4.97;4.07;;;4.50;99.90;;;;;;5053036;28;20177;-83
2022/11/12 03:47:50;;;;;;;3.97;3.67;;;4.50;99.90;;;;;;5054613;28;20177;-81
2022/11/12 03:50:19;;;;;;;4.10;3.67;;;4.50;99.90;;;;;;5057328;28;20190;-79
2022/11/12 03:52:46;;;;;;;3.70;3.40;;;4.50;99.90;;;;;;5053344;28;20246;-82
2022/11/12 03:55:14;;;;;;;3.63;3.33;;;4.40;99.90;;;;;;5053398;28;20199;-78
2022/11/12 03:57:40;;;;;;;9.73;3.90;;;4.50;99.90;;;;;;5054231;28;20208;-86
2022/11/12 04:00:09;;;;;;;3.80;3.43;;;4.50;99.90;;;;;;5062939;28;20178;-82
2022/11/12 04:02:35;;;;;;;4.13;3.73;;;4.60;99.90;;;;;;5056119;28;20196;-83
2022/11/12 04:10:34;;;;;;;4.03;3.63;;;4.80;99.90;;;;;;5053945;28;20574;-79
2022/11/12 04:21:49;;;;;;;5.97;4.67;;;4.80;99.90;;;;;;5055768;28;20349;-84
2022/11/12 04:23:59;;;;;;;5.83;5.23;;;4.90;99.90;;;;;;5056718;28;20186;-83
2022/11/12 04:26:25;;;;;;;5.93;5.23;;;4.90;99.90;;;;;;5056549;28;20635;-83
2022/11/12 04:31:35;;;;;;;6.37;5.30;;;4.90;99.90;;;;;;5056604;28;20254;-86
2022/11/12 04:34:27;;;;;;;5.87;5.37;;;4.90;99.90;;;;;;5056499;28;20185;-87
2022/11/12 04:36:46;;;;;;;5.73;5.23;;;4.90;99.90;;;;;;5059650;28;20203;-83
2022/11/12 04:39:12;;;;;;;6.00;5.40;;;5.00;99.90;;;;;;5060955;28;20181;-80
2022/11/12 04:47:07;;;;;;;5.57;4.97;;;5.10;99.90;;;;;;5056046;28;20187;-78
2022/11/12 04:49:32;;;;;;;5.37;4.83;;;5.10;99.90;;;;;;5055717;28;20179;-80
2022/11/12 04:52:04;;;;;;;5.10;4.60;;;5.20;99.90;;;;;;5055766;28;20180;-80
2022/11/12 04:54:30;;;;;;;7.30;4.70;;;5.20;99.90;;;;;;5037891;28;20176;-82
2022/11/12 04:56:56;;;;;;;9.53;5.23;;;5.20;99.90;;;;;;5037770;28;20680;-79
2022/11/12 04:59:22;;;;;;;6.50;5.27;;;5.20;99.90;;;;;;5037643;28;20208;-80
2022/11/12 05:01:48;;;;;;;7.97;5.53;;;5.30;99.90;;;;;;5055457;28;20184;-82
2022/11/12 05:04:14;;;;;;;6.93;5.40;;;5.20;99.90;;;;;;5055540;28;20190;-81
2022/11/12 05:06:52;;;;;;;6.47;5.87;;;5.20;99.90;;;;;;5037535;28;20212;-79
2022/11/12 05:09:23;;;;;;;6.57;5.97;;;5.30;99.90;;;;;;5055460;28;20176;-78
2022/11/12 05:11:49;;;;;;;7.30;6.07;;;5.30;99.90;;;;;;5055906;28;20187;-84
2022/11/12 05:14:15;;;;;;;8.33;6.30;;;5.30;99.90;;;;;;5037900;28;20191;-79
2022/11/12 05:16:41;;;;;;;6.77;5.90;;;5.30;99.90;;;;;;5042189;28;20242;-86
2022/11/12 05:19:07;;;;;;;10.47;7.60;;;5.30;99.90;;;;;;5039363;28;20185;-86
2022/11/12 05:24:17;;;;;;;8.87;7.00;;;5.40;99.90;;;;;;5037009;28;20186;-86
2022/11/12 05:26:43;;;;;;;7.10;6.37;;;5.40;99.90;;;;;;5050821;28;20185;-85
2022/11/12 05:29:09;;;;;;;9.83;6.67;;;5.50;99.90;;;;;;5054046;28;20201;-86
2022/11/12 05:31:34;;;;;;;7.60;6.67;;;5.50;99.90;;;;;;5037289;28;20178;-84
2022/11/12 05:34:00;;;;;;;9.60;6.77;;;5.60;99.90;;;;;;5041022;28;20640;-85
2022/11/12 05:36:26;;;;;;;9.20;7.10;;;5.50;99.90;;;;;;5035002;28;20731;-86
2022/11/12 05:38:52;;;;;;;5.87;4.97;;;5.60;99.90;;;;;;5035243;28;20334;-85
2022/11/12 05:41:18;;;;;;;5.50;5.00;;;5.60;99.90;;;;;;5036696;28;20218;-84
2022/11/12 05:43:44;;;;;;;6.53;5.23;;;5.80;99.90;;;;;;5039993;28;20706;-83
2022/11/12 05:46:10;;;;;;;5.43;4.90;;;6.10;99.90;;;;;;5034952;28;20175;-85
2022/11/12 05:48:36;;;;;;;4.27;3.87;;;6.30;99.90;;;;;;5033756;28;20178;-85
2022/11/12 05:51:02;;;;;;;5.33;4.17;;;6.30;99.90;;;;;;5035460;28;20538;-83
2022/11/12 05:53:28;;;;;;;4.83;4.40;;;6.40;99.90;;;;;;5034586;28;20175;-85
2022/11/12 05:55:59;;;;;;;6.00;4.80;;;6.60;99.90;;;;;;5035010;28;20190;-84
2022/11/12 05:58:25;;;;;;;6.27;5.00;;;6.70;99.90;;;;;;5034454;28;20206;-83
2022/11/12 06:00:51;;;;;;;4.57;4.10;;;6.80;99.90;;;;;;5034974;28;20177;-83
2022/11/12 06:03:17;;;;;;;4.77;4.23;;;6.90;99.90;;;;;;5034792;28;20187;-84
2022/11/12 06:05:42;;;;;;;4.93;4.13;;;7.00;99.90;;;;;;5034843;28;20634;-84
2022/11/12 06:08:08;;;;;;;4.53;4.20;;;7.10;99.90;;;;;;5034568;28;20232;-84
2022/11/12 06:10:34;;;;;;;5.67;3.80;;;7.20;99.90;;;;;;5035657;28;20229;-84
2022/11/12 06:13:00;;;;;;;6.40;4.17;;;7.20;99.90;;;;;;5035083;28;20183;-83
2022/11/12 06:15:26;;;;;;;5.03;4.17;;;7.20;99.90;;;;;;5033239;28;20224;-85
2022/11/12 06:17:54;;;;;;;4.10;3.70;;;7.30;99.90;;;;;;5035015;28;20322;-84
2022/11/12 06:20:21;;;;;;;5.17;4.10;;;7.40;99.90;;;;;;5035663;28;20183;-86
2022/11/12 06:22:47;;;;;;;4.03;3.73;;;7.50;99.90;;;;;;5037984;28;20214;-83
2022/11/12 06:25:13;;;;;;;6.60;4.13;;;7.40;99.90;;;;;;5042136;28;20174;-83
2022/11/12 06:27:39;;;;;;;4.07;3.60;;;7.40;99.90;;;;;;5035664;28;20544;-81
2022/11/12 06:30:06;;;;;;;4.17;3.80;;;7.50;99.90;;;;;;5037905;28;20194;-80
2022/11/12 06:32:33;;;;;;;5.47;3.83;;;7.50;99.90;;;;;;5034711;28;20730;-84
2022/11/12 06:34:58;;;;;;;5.77;3.80;;;7.60;99.90;;;;;;5034131;28;20176;-85
2022/11/12 06:37:24;;;;;;;3.90;3.60;;;7.60;99.90;;;;;;5034538;28;20695;-82
2022/11/12 06:39:50;;;;;;;4.60;4.07;;;7.60;99.90;;;;;;5036184;28;20249;-83
2022/11/12 06:42:16;;;;;;;3.90;3.50;;;7.60;99.90;;;;;;5037484;28;20191;-83
2022/11/12 06:44:42;;;;;;;4.43;3.47;;;7.70;99.90;;;;;;5044130;28;20275;-79
2022/11/12 06:47:09;;;;;;;4.57;3.50;;;7.70;99.90;;;;;;5038024;28;20200;-81
2022/11/12 06:49:35;;;;;;;3.40;3.10;;;7.80;99.90;;;;;;5038387;28;20191;-81
2022/11/12 06:52:01;;;;;;;3.87;3.57;;;7.80;99.90;;;;;;5038008;28;20272;-81
2022/11/12 06:54:27;;;;;;;4.10;3.73;;;7.80;99.90;;;;;;5042517;28;20196;-84
2022/11/12 06:56:53;;;;;;;4.13;3.80;;;7.90;99.90;;;;;;5035281;28;20656;-85
2022/11/12 06:59:19;;;;;;;4.53;3.90;;;7.80;99.90;;;;;;5034890;28;20191;-86
2022/11/12 07:01:44;;;;;;;5.17;3.77;;;7.80;99.90;;;;;;5036135;28;20185;-85
2022/11/12 07:04:10;;;;;;;4.77;3.77;;;7.90;99.90;;;;;;5034732;28;20678;-86
2022/11/12 07:06:36;;;;;;;3.73;3.43;;;8.00;99.90;;;;;;5037062;28;20189;-84
2022/11/12 07:09:03;;;;;;;3.80;3.50;;;8.00;99.90;;;;;;5040900;28;20634;-82
2022/11/12 07:11:29;;;;;;;4.17;3.80;;;8.20;99.90;;;;;;5037988;28;20647;-80
2022/11/12 07:13:55;;;;;;;4.17;3.77;;;8.20;99.90;;;;;;5036252;28;20234;-84
2022/11/12 07:16:21;;;;;;;7.43;3.83;;;8.30;99.90;;;;;;5050919;28;20729;-85
2022/11/12 07:18:48;;;;;;;4.87;3.80;;;8.30;99.90;;;;;;5057537;28;20222;-85
2022/11/12 07:21:19;;;;;;;4.20;3.80;;;8.30;99.90;;;;;;5038129;28;20550;-81
2022/11/12 07:23:46;;;;;;;3.90;3.50;;;8.40;99.90;;;;;;5055232;28;20183;-79
2022/11/12 07:26:13;;;;;;;4.00;3.70;;;8.40;99.90;;;;;;5039187;28;20191;-80
2022/11/12 07:28:40;;;;;;;3.90;3.60;;;8.50;99.90;;;;;;5057357;28;20710;-79
2022/11/12 07:31:09;;;;;;;3.53;3.23;;;8.50;99.90;;;;;;5055542;28;20512;-80
2022/11/12 07:33:35;;;;;;;4.27;3.83;;;8.50;99.90;;;;;;5060196;28;20631;-85
2022/11/12 07:36:03;;;;;;;4.07;3.77;;;8.50;99.90;;;;;;5039703;28;20201;-80
2022/11/12 07:38:31;;;;;;;4.83;3.97;;;8.50;99.90;;;;;;5059256;28;20312;-84
2022/11/12 07:41:04;;;;;;;4.60;3.80;;;8.60;99.90;;;;;;5039106;28;20192;-81
2022/11/12 07:43:34;;;;;;;4.03;3.63;;;8.60;99.90;;;;;;5053071;28;20183;-79
2022/11/12 07:46:04;;;;;;;3.90;3.50;;;8.60;99.90;;;;;;5053710;28;20226;-80
2022/11/12 07:48:31;;;;;;;3.60;3.30;;;8.60;99.90;;;;;;5054228;28;20188;-78
2022/11/12 07:51:05;;;;;;;3.73;3.33;;;8.50;99.90;;;;;;5057511;28;20230;-82
2022/11/12 07:53:32;;;;;;;4.53;3.90;;;8.60;99.90;;;;;;5039947;28;20214;-83
2022/11/12 07:56:00;;;;;;;3.53;3.23;;;8.70;99.90;;;;;;5057993;28;20264;-81
2022/11/12 07:58:28;;;;;;;3.63;3.33;;;8.70;99.90;;;;;;5058250;28;20681;-80
2022/11/12 08:00:55;;;;;;;4.10;3.73;;;8.70;99.90;;;;;;5061318;28;20176;-83
2022/11/12 08:03:21;;;;;;;7.20;3.60;;;8.70;99.90;;;;;;5063945;28;20187;-80
2022/11/12 08:05:47;;;;;;;4.70;4.30;;;8.80;99.90;;;;;;5064582;28;20183;-85
2022/11/12 08:08:13;;;;;;;4.03;3.57;;;8.80;99.90;;;;;;5040322;28;20635;-85
2022/11/12 08:10:39;;;;;;;4.07;3.70;;;8.80;99.90;;;;;;5046964;28;20191;-84
2022/11/12 08:13:16;;;;;;;3.77;3.43;;;8.90;99.90;;;;;;5044947;28;20184;-81
2022/11/12 08:15:45;;;;;;;3.60;3.30;;;9.00;99.90;;;;;;5059239;28;20231;-79
2022/11/12 08:18:18;;;;;;;4.33;3.93;;;9.00;99.90;;;;;;5057932;28;20227;-83
2022/11/12 08:20:44;;;;;;;4.07;3.67;;;9.10;99.90;;;;;;5061552;28;20169;-79
2022/11/12 08:23:15;;;;;;;4.67;3.60;;;9.10;99.90;;;;;;5059883;28;20178;-83
2022/11/12 08:25:46;;;;;;;4.13;3.73;;;9.20;99.90;;;;;;5058834;28;20200;-80
2022/11/12 08:28:23;;;;;;;3.93;3.63;;;9.30;99.90;;;;;;5058616;28;20225;-84
2022/11/12 08:30:49;;;;;;;4.20;3.67;;;9.30;99.90;;;;;;5059805;28;20168;-79
2022/11/12 08:33:21;;;;;;;3.90;3.60;;;9.40;99.90;;;;;;5057481;28;20189;-78
2022/11/12 08:35:47;;;;;;;3.87;3.60;;;9.50;99.90;;;;;;5037910;28;20605;-82
2022/11/12 08:38:13;;;;;;;4.37;3.90;;;9.60;99.90;;;;;;5055720;28;20264;-83
2022/11/12 08:40:44;;;;;;;3.97;3.53;;;9.70;99.90;;;;;;5056337;28;20179;-80
2022/11/12 08:43:20;;;;;;;;;;;;;;;;;;;;;
2022/11/12 08:45:47;;;;;;;3.97;3.67;;;9.80;99.90;;;;;;5057489;28;20167;-80
2022/11/12 08:48:16;;;;;;;4.50;4.10;;;9.90;99.90;;;;;;5038677;28;20187;-84
2022/11/12 08:50:52;;;;;;;3.73;3.40;;;9.90;99.90;;;;;;5056875;28;20173;-82
2022/11/12 08:53:23;;;;;;;3.90;3.57;;;10.10;99.90;;;;;;5042864;28;20600;-79
2022/11/12 08:55:52;;;;;;;4.37;3.57;;;10.20;99.90;;;;;;5039815;28;20211;-84
2022/11/12 08:58:18;;;;;;;3.80;3.47;;;10.40;99.90;;;;;;5043723;28;20254;-85
2022/11/12 09:00:45;;;;;;;4.17;3.33;;;10.40;99.90;;;;;;5060206;28;20189;-81
2022/11/12 09:03:14;;;;;;;5.43;3.90;;;10.50;99.90;;;;;;5060477;28;20175;-81
2022/11/12 09:05:42;;;;;;;3.37;3.17;;;10.50;99.90;;;;;;5044306;28;20673;-81
2022/11/12 09:08:11;;;;;;;3.70;3.20;;;10.50;99.90;;;;;;5025940;28;20642;-84
2022/11/12 09:10:37;;;;;;;3.23;2.93;;;10.60;99.90;;;;;;5059529;28;20178;-80
2022/11/12 09:13:03;;;;;;;3.67;3.37;;;10.70;99.90;;;;;;5058737;28;20184;-85
2022/11/12 09:15:29;;;;;;;3.53;3.23;;;10.80;99.90;;;;;;5036927;28;20223;-84
2022/11/12 09:18:03;;;;;;;4.07;3.40;;;10.80;99.90;;;;;;5037533;28;20262;-80
2022/11/12 09:20:29;;;;;;;3.40;3.10;;;10.90;99.90;;;;;;5058786;28;20186;-82
2022/11/12 09:23:04;;;;;;;3.30;3.00;;;10.90;99.90;;;;;;5055749;28;20271;-80
2022/11/12 09:25:30;;;;;;;4.13;3.73;;;11.00;99.90;;;;;;5054696;28;20166;-84
2022/11/12 09:27:56;;;;;;;3.97;3.67;;;11.10;99.90;;;;;;5054565;28;20262;-82
2022/11/12 09:30:22;;;;;;;3.30;3.10;;;11.20;99.90;;;;;;5054525;28;20532;-82
2022/11/12 09:33:01;;;;;;;3.77;3.47;;;11.30;99.90;;;;;;5037677;28;20211;-80
2022/11/12 09:35:27;;;;;;;3.80;3.50;;;11.50;99.90;;;;;;5058766;28;20221;-82
2022/11/12 09:37:53;;;;;;;4.47;4.07;;;11.60;99.90;;;;;;5058257;28;20267;-82
2022/11/12 09:40:19;;;;;;;8.37;6.23;;;11.90;99.90;;;;;;5046902;28;20780;-85
2022/11/12 09:42:56;;;;;;;9.07;7.70;;;12.20;99.90;;;;;;5059873;28;20236;-84
2022/11/12 09:45:31;;;;;;;9.83;8.43;;;12.40;99.90;;;;;;5060129;28;20487;-81
2022/11/12 09:48:01;;;;;;;8.40;7.53;;;12.50;99.90;;;;;;5056397;28;20187;-81
2022/11/12 09:50:32;;;;;;;9.33;8.43;;;12.60;99.90;;;;;;5064317;28;20179;-81
2022/11/12 09:53:11;;;;;;;8.27;7.40;;;12.60;99.90;;;;;;5059879;28;20176;-83
2022/11/12 09:55:44;;;;;;;8.80;7.67;;;12.50;99.90;;;;;;5043461;28;20186;-85
2022/11/12 09:58:15;;;;;;;9.13;7.40;;;12.40;99.90;;;;;;5065560;28;20215;-84
2022/11/12 10:00:55;;;;;;;7.63;6.83;;;12.40;99.90;;;;;;5042711;28;20168;-85
2022/11/12 10:03:43;;;;;;;7.87;7.07;;;12.30;99.90;;;;;;5053932;28;20207;-80
2022/11/12 10:06:17;;;;;;;5.60;4.70;;;12.30;99.90;;;;;;5053901;28;20175;-82
2022/11/12 10:08:49;;;;;;;6.17;4.33;;;12.50;99.90;;;;;;5054025;28;20168;-80
2022/11/12 10:14:58;;;;;;;6.33;5.60;;;12.60;99.90;;;;;;5054209;28;20181;-81
2022/11/12 10:17:40;;;;;;;4.67;4.27;;;12.60;99.90;;;;;;5032509;28;20282;-81
2022/11/12 10:20:15;;;;;;;3.70;3.40;;;12.60;99.90;;;;;;5035229;28;20397;-85
2022/11/12 10:22:57;;;;;;;3.10;2.90;;;12.60;99.90;;;;;;5036479;28;20193;-81
2022/11/12 10:25:24;;;;;;;4.93;4.20;;;12.60;99.90;;;;;;5033955;28;20173;-80
2022/11/12 10:27:54;;;;;;;8.37;6.40;;;12.50;99.90;;;;;;5033983;28;20192;-81
2022/11/12 10:30:27;;;;;;;10.27;7.23;;;12.60;99.90;;;;;;5034434;28;20231;-79
2022/11/12 10:32:53;;;;;;;8.13;7.33;;;12.60;99.90;;;;;;5035304;28;20264;-79
2022/11/12 10:35:23;;;;;;;9.07;8.10;;;12.60;99.90;;;;;;5034636;28;20181;-83
2022/11/12 10:38:10;;;;;;;13.20;8.60;;;12.70;99.90;;;;;;5035765;28;20215;-79
2022/11/12 10:40:41;;;;;;;10.40;7.53;;;12.70;99.90;;;;;;5034249;28;20716;-82
2022/11/12 10:43:16;;;;;;;10.30;7.87;;;12.50;99.90;;;;;;5038359;28;20180;-86
2022/11/12 10:45:47;;;;;;;8.07;6.93;;;12.40;99.90;;;;;;5037588;28;20651;-84
2022/11/12 10:48:23;;;;;;;9.20;8.20;;;12.30;99.90;;;;;;5040235;28;20161;-84
2022/11/12 10:50:53;;;;;;;9.03;7.53;;;12.10;99.90;;;;;;5036490;28;20188;-80
2022/11/12 10:53:39;;;;;;;8.53;7.30;;;12.00;99.90;;;;;;5037274;28;20714;-84
2022/11/12 10:56:28;;;;;;;10.90;7.73;;;11.90;99.90;;;;;;5034429;28;20647;-85
2022/11/12 10:59:14;;;;;;;10.97;8.17;;;11.80;99.90;;;;;;5033369;28;20223;-80
2022/11/12 11:01:42;;;;;;;8.50;7.60;;;11.80;99.90;;;;;;5039237;28;20262;-81
2022/11/12 11:04:37;;;;;;;9.03;8.10;;;11.70;99.90;;;;;;5034738;28;20188;-83
2022/11/12 11:07:15;;;;;;;9.80;8.37;;;11.60;99.90;;;;;;5024623;28;20180;-81
2022/11/12 11:09:53;;;;;;;8.77;7.87;;;11.50;99.90;;;;;;5043926;28;20647;-81
2022/11/12 11:12:27;;;;;;;9.73;7.47;;;11.40;99.90;;;;;;5039119;28;20175;-82
2022/11/12 11:15:04;;;;;;;9.80;8.03;;;11.40;99.90;;;;;;5035692;28;20170;-84
2022/11/12 11:17:30;;;;;;;8.07;7.07;;;11.40;99.90;;;;;;5053578;28;20314;-80
2022/11/12 11:19:56;;;;;;;7.83;7.03;;;11.40;99.90;;;;;;5039491;28;20223;-81
2022/11/12 11:22:27;;;;;;;8.13;7.33;;;11.40;99.90;;;;;;5062407;28;20184;-84
2022/11/12 11:25:26;;;;;;;8.20;7.30;;;11.40;99.90;;;;;;5060233;28;20172;-80
2022/11/12 11:28:00;;;;;;;8.33;7.53;;;11.40;99.90;;;;;;5059353;28;20192;-84
2022/11/12 11:30:26;;;;;;;10.13;7.90;;;11.40;99.90;;;;;;5061464;28;20172;-84
2022/11/12 11:33:29;;;;;;;10.83;8.30;;;11.50;99.90;;;;;;5057899;28;20235;-83
2022/11/12 11:36:26;;;;;;;8.27;7.37;;;11.60;99.90;;;;;;5060332;28;20187;-84
2022/11/12 11:39:03;;;;;;;9.33;8.07;;;11.70;99.90;;;;;;5060443;28;20260;-80
2022/11/12 11:42:13;;;;;;;9.03;7.10;;;11.80;99.90;;;;;;5058383;28;20629;-80
2022/11/12 11:44:57;;;;;;;9.53;7.47;;;11.80;99.90;;;;;;5039980;28;20186;-82
2022/11/12 11:47:23;;;;;;;10.20;8.03;;;11.90;99.90;;;;;;5062503;28;20189;-82
2022/11/12 11:50:00;;;;;;;10.27;7.93;;;12.00;99.90;;;;;;5064231;28;20182;-85
2022/11/12 11:52:46;;;;;;;7.93;7.13;;;12.00;99.90;;;;;;5059802;28;20176;-87
2022/11/12 11:55:37;;;;;;;9.90;8.10;;;12.10;99.90;;;;;;5057015;28;20519;-83
2022/11/12 11:58:11;;;;;;;8.70;7.80;;;12.10;99.90;;;;;;5041111;28;20295;-85
2022/11/12 12:00:53;;;;;;;8.17;7.00;;;12.00;99.90;;;;;;5061405;28;20255;-86
2022/11/12 12:03:29;;;;;;;7.87;7.17;;;12.00;99.90;;;;;;5039402;28;20180;-86
2022/11/12 12:06:15;;;;;;;10.20;7.77;;;11.90;99.90;;;;;;5038942;28;20226;-85
2022/11/12 12:08:53;;;;;;;7.97;7.17;;;12.00;99.90;;;;;;5039585;28;20175;-82
2022/11/12 12:11:24;;;;;;;8.20;7.40;;;12.00;99.90;;;;;;5056810;28;20172;-85
2022/11/12 12:14:15;;;;;;;7.90;6.83;;;12.10;99.90;;;;;;5058674;28;20207;-84
2022/11/12 12:17:05;;;;;;;8.23;7.33;;;12.30;99.90;;;;;;5057374;28;20299;-83
2022/11/12 12:19:54;;;;;;;7.47;6.77;;;12.40;99.90;;;;;;5057836;28;20182;-83
2022/11/12 12:22:39;;;;;;;8.70;7.80;;;12.50;99.90;;;;;;5039738;28;20533;-82
2022/11/12 12:25:25;;;;;;;8.93;7.63;;;12.60;99.90;;;;;;5057149;28;20168;-87
2022/11/12 12:28:04;;;;;;;8.87;7.20;;;12.70;99.90;;;;;;5058800;28;20160;-86
2022/11/12 12:30:35;;;;;;;8.00;6.97;;;12.70;99.90;;;;;;5058347;28;20168;-85
2022/11/12 12:33:18;;;;;;;7.63;6.93;;;12.90;99.90;;;;;;5039543;28;20176;-86
2022/11/12 12:36:01;;;;;;;9.30;6.70;;;12.80;99.90;;;;;;5058121;28;20209;-84
2022/11/12 12:39:07;;;;;;;8.23;6.97;;;12.80;99.90;;;;;;5063420;28;20207;-84
2022/11/12 12:42:11;;;;;;;7.73;6.93;;;12.80;99.90;;;;;;5058167;28;20188;-83
2022/11/12 12:44:59;;;;;;;7.30;6.60;;;12.80;99.90;;;;;;5053941;28;20191;-81
2022/11/12 12:47:27;;;;;;;6.90;6.20;;;12.90;99.90;;;;;;5038720;28;20176;-80
2022/11/12 12:49:55;;;;;;;7.57;6.77;;;12.90;99.90;;;;;;5064071;28;20188;-80
2022/11/12 12:52:21;;;;;;;8.33;6.77;;;12.90;99.90;;;;;;5057931;28;20271;-81
2022/11/12 12:54:49;;;;;;;10.30;6.70;;;12.90;99.90;;;;;;5039407;28;20211;-81
2022/11/12 12:57:36;;;;;;;9.07;6.77;;;12.90;99.90;;;;;;5056457;28;20278;-79
2022/11/12 13:00:38;;;;;;;7.80;7.00;;;13.00;99.90;;;;;;5035991;28;20242;-82
2022/11/12 13:03:05;;;;;;;8.57;6.87;;;13.00;99.90;;;;;;5031531;28;20223;-84
2022/11/12 13:05:35;;;;;;;8.47;6.70;;;12.90;99.90;;;;;;5035501;28;20184;-82
2022/11/12 13:08:19;;;;;;;7.97;6.70;;;12.90;99.90;;;;;;5035241;28;20180;-79
2022/11/12 13:10:47;;;;;;;7.77;6.90;;;12.80;99.90;;;;;;5034796;28;20604;-79
2022/11/12 13:13:16;;;;;;;7.83;7.03;;;12.70;99.90;;;;;;5034843;28;20177;-80
2022/11/12 13:15:45;;;;;;;8.03;6.10;;;12.70;99.90;;;;;;5034292;28;20232;-79
2022/11/12 13:18:36;;;;;;;8.37;6.67;;;12.50;99.90;;;;;;5033918;28;20298;-79
2022/11/12 13:21:14;;;;;;;8.33;6.50;;;12.50;99.90;;;;;;5034116;28;20191;-80
2022/11/12 13:24:11;;;;;;;9.60;7.13;;;12.50;99.90;;;;;;5019808;28;20196;-80
2022/11/12 13:26:49;;;;;;;7.70;6.90;;;12.40;99.90;;;;;;5036674;28;20211;-82
2022/11/12 13:29:21;;;;;;;7.83;7.03;;;12.30;99.90;;;;;;5019446;28;20988;-79
2022/11/12 13:31:47;;;;;;;7.03;6.23;;;12.30;99.90;;;;;;5018199;28;20185;-80
2022/11/12 13:34:31;;;;;;;8.23;6.80;;;12.20;99.90;;;;;;5035708;28;20227;-84
2022/11/12 13:37:05;;;;;;;8.07;6.57;;;12.20;99.90;;;;;;5018111;28;20196;-82
2022/11/12 13:39:35;;;;;;;8.07;7.13;;;12.20;99.90;;;;;;5023940;28;20231;-84